»·PEaware :: SAS255 KBUR-KLAS

SAS255 :: KBUR-KLAS

FLIGHT INFORMATION

Flight Status: Arrived
Operator:
SAS
More flights by this operator :: More flights under this callsign
Pilot: Stefan M. (10860)
Aircraft: AIRBUS A320
(A320)
More flights by this aircraft type
Origin: KBUR Bob Hope-Burbank
United States
Destination: KLAS McCarran Intl
United States
More flights between these airports :: More routes between these airports
Route: +VNY2 DAG KEPEC3
File this flight plan on PilotEdge
Remarks: This is for the I-05
Altitude:
(Current/Filed)
25,000ft
Speed:
(Current/Filed)
320kts
Departed: 23-Apr-16 02:27 PM
Arrived: 23-Apr-16 03:17 PM
Distance/Time
Traveled:
194nm/0:49
Distance/Time
To Go:
Arrived

Flight Plot

Page will automatically refresh every two minutes.


Map Options




Map Legend


Flown Route
Filed Route
Departure Airport
Arrival Airport
Navaid (VOR, NDB)
Fix

Horizontal Profiles

Position Reports

Time Latitude Longitude Heading Altitude Ground
Speed
23-Apr-16 13:41 34.210738 -118.357956 257 785ft 0kts
23-Apr-16 13:42 34.210738 -118.357956 257 785ft 0kts
23-Apr-16 13:43 34.210738 -118.357956 257 785ft 0kts
23-Apr-16 13:44 34.210738 -118.357956 257 785ft 0kts
23-Apr-16 13:45 34.210738 -118.357956 257 785ft 0kts
23-Apr-16 13:46 34.210738 -118.357956 257 785ft 0kts
23-Apr-16 13:47 34.210738 -118.357956 257 785ft 0kts
23-Apr-16 13:48 34.210738 -118.357956 257 785ft 0kts
23-Apr-16 13:49 34.210738 -118.357956 257 785ft 0kts
23-Apr-16 13:50 34.210738 -118.357956 257 785ft 0kts
23-Apr-16 13:51 34.210738 -118.357956 257 785ft 0kts
23-Apr-16 13:52 34.210738 -118.357956 257 785ft 0kts
23-Apr-16 13:53 34.210738 -118.357956 257 785ft 0kts
23-Apr-16 13:54 34.210738 -118.357956 257 785ft 0kts
23-Apr-16 13:55 34.210738 -118.357956 257 785ft 0kts
23-Apr-16 13:56 34.210738 -118.357956 257 785ft 0kts
23-Apr-16 13:57 34.210738 -118.357956 257 785ft 0kts
23-Apr-16 13:58 34.210738 -118.357956 257 785ft 0kts
23-Apr-16 13:59 34.210738 -118.357956 257 785ft 0kts
23-Apr-16 14:00 34.210738 -118.357956 257 785ft 0kts
23-Apr-16 14:01 34.210738 -118.357956 257 785ft 0kts
23-Apr-16 14:02 34.210738 -118.357956 257 785ft 0kts
23-Apr-16 14:03 34.210738 -118.357956 257 785ft 0kts
23-Apr-16 14:04 34.210738 -118.357956 257 785ft 0kts
23-Apr-16 14:05 34.210738 -118.357956 257 785ft 0kts
23-Apr-16 14:06 34.210738 -118.357956 257 785ft 0kts
23-Apr-16 14:07 34.210738 -118.357956 257 785ft 0kts
23-Apr-16 14:08 34.210738 -118.357956 257 785ft 0kts
23-Apr-16 14:09 34.210738 -118.357956 257 785ft 0kts
23-Apr-16 14:10 34.210738 -118.357956 257 785ft 0kts
23-Apr-16 14:11 34.210738 -118.357956 257 785ft 0kts
23-Apr-16 14:12 34.210738 -118.357956 257 785ft 0kts
23-Apr-16 14:13 34.210738 -118.357956 257 785ft 0kts
23-Apr-16 14:14 34.210738 -118.357956 257 785ft 0kts
23-Apr-16 14:15 34.211630 -118.359038 319 786ft 6kts
23-Apr-16 14:16 34.211654 -118.359063 317 785ft 2kts
23-Apr-16 14:17 34.210714 -118.360038 166 785ft 0kts
23-Apr-16 14:18 34.183340 -118.362283 219 2012ft 152kts
23-Apr-16 14:19 34.182614 -118.412282 272 4104ft 168kts
23-Apr-16 14:20 34.202224 -118.462278 352 5546ft 183kts
23-Apr-16 14:21 34.256449 -118.474297 351 7179ft 218kts
23-Apr-16 14:22 34.317044 -118.484255 351 8909ft 223kts
23-Apr-16 14:23 34.379191 -118.492060 351 10614ft 228kts
23-Apr-16 14:24 34.437571 -118.475809 64 12422ft 258kts
23-Apr-16 14:25 34.464245 -118.393935 54 14037ft 263kts
23-Apr-16 14:26 34.501233 -118.317899 51 14571ft 267kts
23-Apr-16 14:27 34.542149 -118.237806 51 16224ft 293kts
23-Apr-16 14:28 34.586367 -118.151962 51 17857ft 315kts
23-Apr-16 14:29 34.631236 -118.056944 71 19534ft 336kts
23-Apr-16 14:30 34.644586 -117.942151 75 21248ft 350kts
23-Apr-16 14:31 34.657668 -117.825337 76 22942ft 360kts
23-Apr-16 14:32 34.678236 -117.708481 65 24934ft 353kts
23-Apr-16 14:33 34.709385 -117.584954 66 25134ft 413kts
23-Apr-16 14:34 34.744190 -117.446596 67 25130ft 471kts
23-Apr-16 14:35 34.785593 -117.283787 67 25126ft 506kts
23-Apr-16 14:36 34.827026 -117.120230 67 25111ft 506kts
23-Apr-16 14:37 34.868362 -116.956031 67 25103ft 506kts
23-Apr-16 14:38 34.908549 -116.796738 68 25101ft 507kts
23-Apr-16 14:39 34.949517 -116.632111 68 25101ft 507kts
23-Apr-16 14:40 35.026858 -116.498895 41 24096ft 477kts
23-Apr-16 14:41 35.116321 -116.386251 39 24078ft 428kts
23-Apr-16 14:42 35.185036 -116.300302 38 24084ft 425kts
23-Apr-16 14:43 35.267535 -116.196773 38 24085ft 424kts
23-Apr-16 14:44 35.346889 -116.096744 38 22676ft 384kts
23-Apr-16 14:45 35.418365 -116.006513 38 20902ft 348kts
23-Apr-16 14:46 35.484818 -115.922501 39 18040ft 337kts
23-Apr-16 14:47 35.547815 -115.842992 41 15356ft 324kts
23-Apr-16 14:48 35.608202 -115.766445 41 13084ft 313kts
23-Apr-16 14:49 35.672378 -115.684667 42 13074ft 337kts
23-Apr-16 14:50 35.737194 -115.601394 41 13074ft 337kts
23-Apr-16 14:51 35.815584 -115.573818 2 13073ft 287kts
23-Apr-16 14:52 35.895547 -115.568011 0 13059ft 287kts
23-Apr-16 14:53 35.969480 -115.549880 43 13050ft 301kts
23-Apr-16 14:54 36.005388 -115.459294 60 13021ft 285kts
23-Apr-16 14:55 36.025426 -115.366523 83 13035ft 295kts
23-Apr-16 14:56 36.022382 -115.264672 90 13024ft 297kts
23-Apr-16 14:57 36.015688 -115.162865 90 13038ft 297kts
23-Apr-16 14:58 36.008907 -115.060987 89 13029ft 297kts
23-Apr-16 14:59 36.010874 -114.961622 90 11924ft 291kts
23-Apr-16 15:00 35.953413 -114.928087 230 10191ft 259kts
23-Apr-16 15:01 35.925412 -115.002235 251 8271ft 233kts
23-Apr-16 15:02 35.901333 -115.073756 251 6293ft 224kts
23-Apr-16 15:03 35.900200 -115.144775 277 5048ft 209kts
23-Apr-16 15:04 35.907191 -115.215375 315 5075ft 206kts
23-Apr-16 15:05 35.962350 -115.229454 350 5050ft 206kts
23-Apr-16 15:06 36.015286 -115.203319 19 4573ft 227kts
23-Apr-16 15:07 36.065681 -115.175646 20 2701ft 176kts
23-Apr-16 15:08 36.094229 -115.159664 25 2150ft 0kts
23-Apr-16 15:09 36.096717 -115.158199 23 2150ft 27kts
23-Apr-16 15:10 36.098941 -115.157662 308 2150ft 0kts
23-Apr-16 15:11 36.097668 -115.160201 204 2150ft 19kts
23-Apr-16 15:12 36.094815 -115.161853 270 2150ft 0kts
23-Apr-16 15:13 36.094815 -115.161853 270 2150ft 0kts
23-Apr-16 15:14 36.094815 -115.161853 270 2150ft 0kts
23-Apr-16 15:15 36.094815 -115.161853 270 2150ft 0kts
23-Apr-16 15:16 36.094815 -115.161853 270 2150ft 0kts
23-Apr-16 15:17 36.094815 -115.161853 270 2150ft 0kts
23-Apr-16 15:18 36.094815 -115.161853 270 2150ft 0kts
23-Apr-16 15:19 36.094815 -115.161853 270 2150ft 0kts
23-Apr-16 15:20 36.094815 -115.161853 270 2150ft 0kts
23-Apr-16 15:21 36.094815 -115.161853 270 2150ft 0kts
23-Apr-16 15:22 36.094815 -115.161853 270 2150ft 0kts

Navigation Log

Ident Type
1. KBUR Airport
2. IPIHO Fix
3. TWINE Fix
4. LANGE Fix
5. PMD Navaid
6. DAG Navaid
7. MISEN Fix
8. CLARR Fix
9. SKEBR Fix
10. KEPEC Fix
11. IPUMY Fix
12. NIPZO Fix
13. SUNST Fix
14. KIMME Fix
15. CHIPZ Fix
16. POKRR Fix
17. PRINO Fix
18. KLAS Airport